createdAt,value
2018-03-17T00:02:12.464Z,29.93
2018-03-17T00:04:39.979Z,27.40
2018-03-17T00:07:07.517Z,26.87
2018-03-17T00:09:35.040Z,27.30
2018-03-17T00:12:02.542Z,31.50
2018-03-17T00:14:30.810Z,23.57
2018-03-17T00:16:58.352Z,30.90
2018-03-17T00:19:25.852Z,31.13
2018-03-17T00:21:53.377Z,27.67
2018-03-17T00:24:20.864Z,28.23
2018-03-17T00:26:48.376Z,28.27
2018-03-17T00:29:16.695Z,37.00
2018-03-17T00:31:44.169Z,30.80
2018-03-17T00:34:12.028Z,26.80
2018-03-17T00:36:39.519Z,25.30
2018-03-17T00:39:07.043Z,25.63
2018-03-17T00:41:34.559Z,29.40
2018-03-17T00:44:02.062Z,21.03
2018-03-17T00:46:29.588Z,32.90
2018-03-17T00:48:57.065Z,26.57
2018-03-17T00:51:25.345Z,30.83
2018-03-17T00:53:53.626Z,30.83
2018-03-17T00:56:21.884Z,22.53
2018-03-17T00:58:49.634Z,31.60
2018-03-17T01:01:17.140Z,31.33
2018-03-17T01:03:44.646Z,26.07
2018-03-17T01:06:12.404Z,27.63
2018-03-17T01:08:39.905Z,29.70
2018-03-17T01:11:07.426Z,27.50
2018-03-17T01:13:34.946Z,33.73
2018-03-17T01:16:02.420Z,30.17
2018-03-17T01:18:30.714Z,22.87
2018-03-17T01:20:58.204Z,35.10
2018-03-17T01:23:26.495Z,36.13
2018-03-17T01:25:53.994Z,38.60
2018-03-17T01:28:21.468Z,33.63
2018-03-17T01:30:49.010Z,38.90
2018-03-17T01:33:16.511Z,36.77
2018-03-17T01:35:44.797Z,38.10
2018-03-17T01:38:13.061Z,37.93
2018-03-17T01:40:41.351Z,42.17
2018-03-17T01:43:08.867Z,38.97
2018-03-17T01:45:36.414Z,40.13
2018-03-17T01:48:04.705Z,33.17
2018-03-17T01:50:32.214Z,47.23
2018-03-17T01:52:59.692Z,41.70
2018-03-17T01:55:27.210Z,50.03
2018-03-17T01:57:54.721Z,42.40
2018-03-17T02:00:22.306Z,50.60
2018-03-17T02:02:49.828Z,48.43
2018-03-17T02:05:17.325Z,48.97
2018-03-17T02:07:44.835Z,50.07
2018-03-17T02:10:12.334Z,45.53
2018-03-17T02:12:40.621Z,48.60
2018-03-17T02:15:08.128Z,46.03
2018-03-17T02:17:35.621Z,43.10
2018-03-17T02:20:03.127Z,50.83
2018-03-17T02:22:30.624Z,48.33
2018-03-17T02:24:58.146Z,41.67
2018-03-17T02:27:26.426Z,46.43
2018-03-17T02:29:53.933Z,47.47
2018-03-17T02:32:21.447Z,40.67
2018-03-17T02:34:50.703Z,47.97
2018-03-17T02:37:19.015Z,36.07
2018-03-17T02:39:46.534Z,41.40
2018-03-17T02:42:14.041Z,30.60
2018-03-17T02:44:41.579Z,28.63
2018-03-17T02:47:09.092Z,33.83
2018-03-17T02:49:36.607Z,31.03
2018-03-17T02:52:04.161Z,35.90
2018-03-17T02:54:31.687Z,43.13
2018-03-17T02:56:59.234Z,27.77
2018-03-17T02:59:26.731Z,38.27
2018-03-17T03:01:54.241Z,37.97
2018-03-17T03:04:21.734Z,33.43
2018-03-17T03:06:49.235Z,42.73
2018-03-17T03:09:16.743Z,31.60
2018-03-17T03:11:44.988Z,42.00
2018-03-17T03:14:12.514Z,38.37
2018-03-17T03:16:40.020Z,47.40
2018-03-17T03:19:07.520Z,33.43
2018-03-17T03:21:35.064Z,43.77
2018-03-17T03:24:03.358Z,35.10
2018-03-17T03:26:30.899Z,46.50
2018-03-17T03:28:58.424Z,46.60
2018-03-17T03:31:25.993Z,36.93
2018-03-17T03:33:53.508Z,38.83
2018-03-17T03:36:21.002Z,23.20
2018-03-17T03:38:48.518Z,26.20
2018-03-17T03:41:16.012Z,29.13
2018-03-17T03:43:44.309Z,30.83
2018-03-17T03:46:11.804Z,34.53
2018-03-17T03:48:39.293Z,29.43
2018-03-17T03:51:06.786Z,45.43
2018-03-17T03:53:35.039Z,42.67
2018-03-17T03:56:02.529Z,48.47
2018-03-17T03:58:30.866Z,42.77
2018-03-17T04:00:59.631Z,36.20
2018-03-17T04:03:27.457Z,30.30
2018-03-17T04:05:55.731Z,37.70
2018-03-17T04:08:24.002Z,30.40
2018-03-17T04:10:51.531Z,41.67
2018-03-17T04:13:19.040Z,36.00
2018-03-17T04:15:47.327Z,48.27
2018-03-17T04:18:14.830Z,30.67
2018-03-17T04:20:42.327Z,42.93
2018-03-17T04:23:10.611Z,35.40
2018-03-17T04:25:38.127Z,28.33
2018-03-17T04:28:05.620Z,43.73
2018-03-17T04:30:33.132Z,27.03
2018-03-17T04:33:00.636Z,43.23
2018-03-17T04:35:28.141Z,42.67
2018-03-17T04:37:55.647Z,38.40
2018-03-17T04:40:23.934Z,42.07
2018-03-17T04:42:51.431Z,37.63
2018-03-17T04:45:18.924Z,25.90
2018-03-17T04:47:46.450Z,33.40
2018-03-17T04:50:14.710Z,23.67
2018-03-17T04:52:42.244Z,32.57
2018-03-17T04:55:09.731Z,31.67
2018-03-17T04:57:37.220Z,29.17
2018-03-17T05:00:04.825Z,37.93
2018-03-17T05:02:32.281Z,35.33
2018-03-17T05:04:59.767Z,35.67
2018-03-17T05:07:27.281Z,36.43
2018-03-17T05:09:54.788Z,38.03
2018-03-17T05:12:22.274Z,21.90
2018-03-17T05:14:49.800Z,28.77
2018-03-17T05:17:17.299Z,44.50
2018-03-17T05:19:45.547Z,25.03
2018-03-17T05:22:13.038Z,34.87
2018-03-17T05:24:40.572Z,30.83
2018-03-17T05:27:08.088Z,29.87
2018-03-17T05:29:35.882Z,47.47
2018-03-17T05:32:03.747Z,22.50
2018-03-17T05:34:31.260Z,35.10
2018-03-17T05:36:58.756Z,23.97
2018-03-17T05:39:26.321Z,32.13
2018-03-17T05:41:53.846Z,42.10
2018-03-17T05:44:21.348Z,46.20
2018-03-17T05:46:48.849Z,39.37
2018-03-17T05:49:16.353Z,44.67
2018-03-17T05:51:43.852Z,34.27
2018-03-17T05:54:11.380Z,46.37
2018-03-17T05:56:38.902Z,40.33
2018-03-17T05:59:06.395Z,29.17
2018-03-17T06:01:33.908Z,28.70
2018-03-17T06:04:01.416Z,26.87
2018-03-17T06:06:28.920Z,31.67
2018-03-17T06:08:56.420Z,41.00
2018-03-17T06:11:23.955Z,30.50
2018-03-17T06:13:51.737Z,30.27
2018-03-17T06:16:19.258Z,31.50
2018-03-17T06:18:46.772Z,30.23
2018-03-17T06:21:14.287Z,35.73
2018-03-17T06:23:41.784Z,36.97
2018-03-17T06:26:09.319Z,45.70
2018-03-17T06:28:37.404Z,38.87
2018-03-17T06:31:04.910Z,33.03
2018-03-17T06:33:32.455Z,27.70
2018-03-17T06:36:00.188Z,31.07
2018-03-17T06:38:27.733Z,36.27
2018-03-17T06:40:55.239Z,33.37
2018-03-17T06:43:22.778Z,40.00
2018-03-17T06:45:50.302Z,24.70
2018-03-17T06:48:17.825Z,29.90
2018-03-17T06:50:46.359Z,27.13
2018-03-17T06:53:13.872Z,37.57
2018-03-17T06:55:41.402Z,26.53
2018-03-17T06:58:08.981Z,38.30
2018-03-17T07:00:36.561Z,30.03
2018-03-17T07:03:04.060Z,18.53
2018-03-17T07:05:32.394Z,28.43
2018-03-17T07:07:59.900Z,18.13
2018-03-17T07:10:27.396Z,18.47
2018-03-17T07:12:54.906Z,33.30
2018-03-17T07:15:22.445Z,35.30
2018-03-17T07:17:49.958Z,30.03
2018-03-17T07:20:17.461Z,31.50
2018-03-17T07:22:44.983Z,36.90
2018-03-17T07:25:12.603Z,23.67
2018-03-17T07:27:40.801Z,39.43
2018-03-17T07:30:08.516Z,36.63
2018-03-17T07:32:36.012Z,32.73
2018-03-17T07:35:03.538Z,35.63
2018-03-17T07:37:31.028Z,29.60
2018-03-17T07:39:58.640Z,33.17
2018-03-17T07:42:26.277Z,31.80
2018-03-17T07:44:54.673Z,25.57
2018-03-17T07:47:22.195Z,37.60
2018-03-17T07:49:49.709Z,16.37
2018-03-17T07:52:19.080Z,32.70
2018-03-17T07:57:26.156Z,17.57
2018-03-17T08:00:09.280Z,19.83
2018-03-17T08:02:37.159Z,26.30
2018-03-17T08:05:05.549Z,25.17
2018-03-17T08:07:33.083Z,25.80
2018-03-17T08:10:00.619Z,28.23
2018-03-17T08:12:28.103Z,34.73
2018-03-17T08:14:55.609Z,22.60
2018-03-17T08:17:24.937Z,26.17
2018-03-17T08:19:52.497Z,21.17
2018-03-17T08:22:20.052Z,21.13
2018-03-17T08:24:47.566Z,23.83
2018-03-17T08:27:15.140Z,22.53
2018-03-17T08:29:42.656Z,25.53
2018-03-17T08:32:10.149Z,26.10
2018-03-17T08:34:37.675Z,15.53
2018-03-17T08:37:06.013Z,27.13
2018-03-17T08:39:33.606Z,18.30
2018-03-17T08:42:01.681Z,23.10
2018-03-17T08:44:29.271Z,23.87
2018-03-17T08:46:56.783Z,23.37
2018-03-17T08:49:24.319Z,33.23
2018-03-17T08:51:51.850Z,17.07
2018-03-17T08:54:19.378Z,25.97
2018-03-17T08:56:47.656Z,19.53
2018-03-17T08:59:15.921Z,23.10
2018-03-17T09:01:44.445Z,24.03
2018-03-17T09:04:11.954Z,24.93
2018-03-17T09:06:39.505Z,30.37
2018-03-17T09:09:07.014Z,26.13
2018-03-17T09:11:34.510Z,15.63
2018-03-17T09:14:02.013Z,25.90
2018-03-17T09:16:30.269Z,24.93
2018-03-17T09:18:58.575Z,20.70
2018-03-17T09:21:26.888Z,25.97
2018-03-17T09:23:54.404Z,18.57
2018-03-17T09:26:22.796Z,20.17
2018-03-17T09:28:50.330Z,19.57
2018-03-17T09:31:18.657Z,18.90
2018-03-17T09:33:46.162Z,24.43
2018-03-17T09:36:13.675Z,25.17
2018-03-17T09:38:41.211Z,24.03
2018-03-17T09:41:08.727Z,20.50
2018-03-17T09:43:39.858Z,18.07
2018-03-17T09:46:08.747Z,18.63
2018-03-17T09:48:36.279Z,17.30
2018-03-17T09:51:03.820Z,22.47
2018-03-17T09:53:31.352Z,14.77
2018-03-17T09:55:59.674Z,14.23
2018-03-17T09:58:27.193Z,13.60
2018-03-17T10:00:55.474Z,12.97
2018-03-17T10:03:23.745Z,15.00
2018-03-17T10:05:52.684Z,14.47
2018-03-17T10:08:20.799Z,23.20
2018-03-17T10:10:48.378Z,11.73
2018-03-17T10:13:17.968Z,17.30
2018-03-17T10:15:46.306Z,23.37
2018-03-17T10:18:13.847Z,15.27
2018-03-17T10:20:43.091Z,22.40
2018-03-17T10:23:14.710Z,15.73
2018-03-17T10:25:43.972Z,14.63
2018-03-17T10:28:11.933Z,21.87
2018-03-17T10:30:41.061Z,19.00
2018-03-17T10:33:11.415Z,16.13
2018-03-17T10:35:43.898Z,15.33
2018-03-17T10:38:13.104Z,13.03
2018-03-17T10:40:41.268Z,20.80
2018-03-17T10:43:09.584Z,17.83
2018-03-17T10:45:37.964Z,18.33
2018-03-17T10:48:06.238Z,12.77
2018-03-17T10:50:33.786Z,16.50
2018-03-17T10:53:01.654Z,10.67
2018-03-17T10:55:29.195Z,14.13
2018-03-17T10:57:57.527Z,17.48
2018-03-17T11:00:26.844Z,17.90
2018-03-17T11:05:32.045Z,14.87
2018-03-17T11:07:59.613Z,18.10
2018-03-17T11:10:27.174Z,21.00
2018-03-17T11:12:54.715Z,15.20
2018-03-17T11:15:23.060Z,13.30
2018-03-17T11:17:50.604Z,18.93
2018-03-17T11:20:18.117Z,17.20
2018-03-17T11:22:45.693Z,15.20
2018-03-17T11:25:13.238Z,21.57
2018-03-17T11:27:42.328Z,17.77
2018-03-17T11:30:10.695Z,12.93
2018-03-17T11:32:38.243Z,17.10
2018-03-17T11:35:05.800Z,16.90
2018-03-17T11:37:33.371Z,23.15
2018-03-17T11:40:01.211Z,15.13
2018-03-17T11:42:28.844Z,19.23
2018-03-17T11:44:56.423Z,24.37
2018-03-17T11:47:23.987Z,22.10
2018-03-17T11:49:51.548Z,19.10
2018-03-17T11:52:19.051Z,14.00
2018-03-17T11:54:46.563Z,19.30
2018-03-17T11:57:14.535Z,18.20
2018-03-17T11:59:42.864Z,18.83
2018-03-17T12:02:11.166Z,14.77
2018-03-17T12:04:38.710Z,16.10
2018-03-17T12:07:06.331Z,16.63
2018-03-17T12:09:33.823Z,18.03
2018-03-17T12:12:01.360Z,15.70
2018-03-17T12:14:28.895Z,20.25
2018-03-17T12:16:56.428Z,19.70
2018-03-17T12:19:23.968Z,18.27
2018-03-17T12:21:52.501Z,12.00
2018-03-17T12:24:20.037Z,17.10
2018-03-17T12:26:47.568Z,16.00
2018-03-17T12:29:15.104Z,22.03
2018-03-17T12:31:42.651Z,12.43
2018-03-17T12:34:10.160Z,12.30
2018-03-17T12:36:37.698Z,11.90
2018-03-17T12:39:05.223Z,15.70
2018-03-17T12:41:32.714Z,18.77
2018-03-17T12:44:00.240Z,12.20
2018-03-17T12:46:27.768Z,13.77
2018-03-17T12:48:55.306Z,20.23
2018-03-17T12:51:22.823Z,17.33
2018-03-17T12:53:50.319Z,21.63
2018-03-17T12:56:17.821Z,15.23
2018-03-17T12:58:45.350Z,16.43
2018-03-17T13:01:12.863Z,20.97
2018-03-17T13:03:40.424Z,19.30
2018-03-17T13:06:08.704Z,20.00
2018-03-17T13:08:36.993Z,16.60
2018-03-17T13:11:04.749Z,19.07
2018-03-17T13:13:32.276Z,20.23
2018-03-17T13:15:59.814Z,20.10
2018-03-17T13:18:27.381Z,16.10
2018-03-17T13:20:54.919Z,17.70
2018-03-17T13:23:22.421Z,20.65
2018-03-17T13:25:49.912Z,11.93
2018-03-17T13:28:26.125Z,20.27
2018-03-17T13:30:53.625Z,16.63
2018-03-17T13:33:21.195Z,19.12
2018-03-17T13:36:00.571Z,16.63
2018-03-17T13:38:28.105Z,15.05
2018-03-17T13:40:55.851Z,19.70
2018-03-17T13:43:23.370Z,11.73
2018-03-17T13:45:51.651Z,19.73
2018-03-17T13:48:19.184Z,12.80
2018-03-17T13:50:46.738Z,16.63
2018-03-17T13:53:14.292Z,17.87
2018-03-17T13:55:41.831Z,11.43
2018-03-17T13:58:09.364Z,14.63
2018-03-17T14:00:37.210Z,14.47
2018-03-17T14:03:05.077Z,16.03
2018-03-17T14:05:32.616Z,20.40
2018-03-17T14:08:00.166Z,16.20
2018-03-17T14:10:27.718Z,15.30
2018-03-17T14:12:55.208Z,14.38
2018-03-17T14:15:22.750Z,15.60
2018-03-17T14:17:50.285Z,11.82
2018-03-17T14:20:17.803Z,13.57
2018-03-17T14:22:45.329Z,26.67
2018-03-17T14:25:12.838Z,12.10
2018-03-17T14:27:40.373Z,14.65
2018-03-17T14:30:09.537Z,16.17
2018-03-17T14:32:37.235Z,17.67
2018-03-17T14:35:05.593Z,17.05
2018-03-17T14:37:33.140Z,12.73
2018-03-17T14:40:00.688Z,19.02
2018-03-17T14:42:28.191Z,18.23
2018-03-17T14:44:56.683Z,11.80
2018-03-17T14:47:24.244Z,10.10
2018-03-17T14:49:51.770Z,19.70
2018-03-17T14:52:19.361Z,19.30
2018-03-17T14:54:46.839Z,19.20
2018-03-17T14:57:14.370Z,22.00
2018-03-17T14:59:41.903Z,11.12
2018-03-17T15:02:09.574Z,15.13
2018-03-17T15:04:37.141Z,11.20
2018-03-17T15:07:05.443Z,15.35
2018-03-17T15:09:32.941Z,11.43
2018-03-17T15:12:00.452Z,18.35
2018-03-17T15:14:28.716Z,13.20
2018-03-17T15:16:56.239Z,11.40
2018-03-17T15:19:23.732Z,12.30
2018-03-17T15:21:52.003Z,15.80
2018-03-17T15:24:20.284Z,14.40
2018-03-17T15:26:48.573Z,15.85
2018-03-17T15:29:16.866Z,14.70
2018-03-17T15:31:44.382Z,13.13
2018-03-17T15:34:14.789Z,21.05
2018-03-17T15:36:42.296Z,16.80
2018-03-17T15:39:11.487Z,12.48
2018-03-17T15:41:39.025Z,15.38
2018-03-17T15:44:08.127Z,15.93
2018-03-17T15:46:36.422Z,16.80
2018-03-17T15:49:03.953Z,16.77
2018-03-17T15:51:31.492Z,13.57
2018-03-17T15:53:59.755Z,18.35
2018-03-17T15:56:27.354Z,19.70
2018-03-17T15:58:54.877Z,20.88
2018-03-17T16:01:22.369Z,6.35
2018-03-17T16:03:50.633Z,16.17
2018-03-17T16:06:18.127Z,15.88
2018-03-17T16:08:45.650Z,8.13
2018-03-17T16:11:13.148Z,18.75
2018-03-17T16:13:40.638Z,13.95
2018-03-17T16:16:09.326Z,17.73
2018-03-17T16:18:36.861Z,19.52
2018-03-17T16:21:04.373Z,17.65
2018-03-17T16:23:31.864Z,17.92
2018-03-17T16:26:00.189Z,15.98
2018-03-17T16:28:28.194Z,24.42
2018-03-17T16:30:55.728Z,19.10
2018-03-17T16:33:23.220Z,16.02
2018-03-17T16:35:50.711Z,11.82
2018-03-17T16:38:18.226Z,14.45
2018-03-17T16:40:46.498Z,18.37
2018-03-17T16:43:14.025Z,15.27
2018-03-17T16:45:41.545Z,16.50
2018-03-17T16:48:09.277Z,15.50
2018-03-17T16:50:36.799Z,19.60
2018-03-17T16:53:04.553Z,20.52
2018-03-17T16:55:32.080Z,22.42
2018-03-17T16:58:00.346Z,14.70
2018-03-17T17:00:28.624Z,17.52
2018-03-17T17:02:56.911Z,14.60
2018-03-17T17:05:24.428Z,10.77
2018-03-17T17:07:51.937Z,18.80
2018-03-17T17:10:19.675Z,17.60
2018-03-17T17:12:47.949Z,18.65
2018-03-17T17:15:16.237Z,18.15
2018-03-17T17:17:44.533Z,10.73
2018-03-17T17:20:12.042Z,10.30
2018-03-17T17:22:39.552Z,11.57
2018-03-17T17:25:07.100Z,15.70
2018-03-17T17:27:34.686Z,17.27
2018-03-17T17:30:02.201Z,10.20
2018-03-17T17:32:30.462Z,8.82
2018-03-17T17:34:58.107Z,20.45
2018-03-17T17:37:25.621Z,17.00
2018-03-17T17:39:58.756Z,20.37
2018-03-17T17:42:26.256Z,12.65
2018-03-17T17:44:53.758Z,14.63
2018-03-17T17:47:21.278Z,15.95
2018-03-17T17:49:48.794Z,21.90
2018-03-17T17:52:16.326Z,19.15
2018-03-17T17:54:43.864Z,25.20
2018-03-17T17:57:11.398Z,19.85
2018-03-17T17:59:39.721Z,24.70
2018-03-17T18:02:08.168Z,30.55
2018-03-17T18:04:35.804Z,14.30
2018-03-17T18:07:03.448Z,42.97
2018-03-17T18:09:31.071Z,16.50
2018-03-17T18:11:58.636Z,15.18
2018-03-17T18:14:27.015Z,22.92
2018-03-17T18:16:54.528Z,18.52
2018-03-17T18:19:22.044Z,11.75
2018-03-17T18:21:49.537Z,15.65
2018-03-17T18:24:17.793Z,9.95
2018-03-17T18:26:45.317Z,21.17
2018-03-17T18:29:12.842Z,19.17
2018-03-17T18:31:40.352Z,13.68
2018-03-17T18:34:09.616Z,10.63
2018-03-17T18:36:37.180Z,12.73
2018-03-17T18:39:04.644Z,11.70
2018-03-17T18:41:32.164Z,18.70
2018-03-17T18:44:00.444Z,13.77
2018-03-17T18:46:28.722Z,16.08
2018-03-17T18:48:57.036Z,9.60
2018-03-17T18:51:24.531Z,14.32
2018-03-17T18:53:52.066Z,16.45
2018-03-17T18:56:19.579Z,13.85
2018-03-17T18:58:47.085Z,9.73
2018-03-17T19:01:14.636Z,17.87
2018-03-17T19:03:42.117Z,13.77
2018-03-17T19:06:10.408Z,15.95
2018-03-17T19:08:37.885Z,13.18
2018-03-17T19:11:06.161Z,18.40
2018-03-17T19:13:34.458Z,13.62
2018-03-17T19:16:02.034Z,19.65
2018-03-17T19:18:29.553Z,26.25
2018-03-17T19:20:57.080Z,25.62
2018-03-17T19:23:24.572Z,28.50
2018-03-17T19:25:52.081Z,39.85
2018-03-17T19:28:19.602Z,34.20
2018-03-17T19:30:47.101Z,28.73
2018-03-17T19:33:14.604Z,49.70
2018-03-17T19:35:42.877Z,15.23
2018-03-17T19:38:10.420Z,18.50
2018-03-17T19:40:37.919Z,15.48
2018-03-17T19:43:05.417Z,14.95
2018-03-17T19:45:32.934Z,13.55
2018-03-17T19:48:00.431Z,14.18
2018-03-17T19:50:28.727Z,16.17
2018-03-17T19:52:56.227Z,15.40
2018-03-17T19:55:23.722Z,12.57
2018-03-17T19:57:51.217Z,12.40
2018-03-17T20:00:18.759Z,13.23
2018-03-17T20:02:46.282Z,15.88
2018-03-17T20:05:14.161Z,18.83
2018-03-17T20:07:41.661Z,11.65
2018-03-17T20:10:09.155Z,19.52
2018-03-17T20:12:36.809Z,17.00
2018-03-17T20:15:05.095Z,17.05
2018-03-17T20:17:35.324Z,12.10
2018-03-17T20:20:02.869Z,18.00
2018-03-17T20:22:30.380Z,16.37
2018-03-17T20:24:57.930Z,14.35
2018-03-17T20:27:25.449Z,13.45
2018-03-17T20:29:52.978Z,16.55
2018-03-17T20:32:20.498Z,14.63
2018-03-17T20:34:48.034Z,12.37
2018-03-17T20:37:15.569Z,16.95
2018-03-17T20:39:43.832Z,20.15
2018-03-17T20:42:12.171Z,17.90
2018-03-17T20:44:39.665Z,20.05
2018-03-17T20:47:07.159Z,17.35
2018-03-17T20:49:34.667Z,17.12
2018-03-17T20:52:02.932Z,14.30
2018-03-17T20:54:30.697Z,14.57
2018-03-17T20:56:58.193Z,12.70
2018-03-17T20:59:25.710Z,14.52
2018-03-17T21:01:53.240Z,19.37
2018-03-17T21:04:22.646Z,18.45
2018-03-17T21:06:50.136Z,16.42
2018-03-17T21:09:18.396Z,14.20
2018-03-17T21:11:45.968Z,18.83
2018-03-17T21:14:13.447Z,9.13
2018-03-17T21:16:41.399Z,14.68
2018-03-17T21:19:09.229Z,17.35
2018-03-17T21:21:36.727Z,22.90
2018-03-17T21:24:04.264Z,15.10
2018-03-17T21:26:31.767Z,11.93
2018-03-17T21:29:00.049Z,16.95
2018-03-17T21:31:27.569Z,19.40
2018-03-17T21:33:55.089Z,14.77
2018-03-17T21:36:22.589Z,6.40
2018-03-17T21:38:50.871Z,13.18
2018-03-17T21:41:18.409Z,20.17
2018-03-17T21:43:45.926Z,13.18
2018-03-17T21:46:13.429Z,16.08
2018-03-17T21:48:40.963Z,11.55
2018-03-17T21:51:08.464Z,14.57
2018-03-17T21:53:36.762Z,16.83
2018-03-17T21:56:04.278Z,11.25
2018-03-17T21:58:31.765Z,13.80
2018-03-17T22:00:59.279Z,17.02
2018-03-17T22:03:28.223Z,17.23
2018-03-17T22:05:55.749Z,13.52
2018-03-17T22:08:23.281Z,11.95
2018-03-17T22:10:50.774Z,13.62
2018-03-17T22:13:18.313Z,11.60
2018-03-17T22:15:45.844Z,11.95
2018-03-17T22:18:13.353Z,10.43
2018-03-17T22:20:41.604Z,16.37
2018-03-17T22:23:09.145Z,15.10
2018-03-17T22:25:36.666Z,16.85
2018-03-17T22:28:04.164Z,11.05
2018-03-17T22:30:31.701Z,15.63
2018-03-17T22:33:01.208Z,15.05
2018-03-17T22:35:28.742Z,22.65
2018-03-17T22:37:56.302Z,12.50
2018-03-17T22:40:24.497Z,9.20
2018-03-17T22:42:52.033Z,9.90
2018-03-17T22:45:19.538Z,16.52
2018-03-17T22:47:47.048Z,17.42
2018-03-17T22:50:16.372Z,15.48
2018-03-17T22:52:45.039Z,15.13
2018-03-17T22:55:12.535Z,10.85
2018-03-17T22:57:40.047Z,14.07
2018-03-17T23:00:08.113Z,20.85
2018-03-17T23:02:36.367Z,8.48
2018-03-17T23:05:03.859Z,16.40
2018-03-17T23:07:31.446Z,12.32
2018-03-17T23:09:59.152Z,17.83
2018-03-17T23:12:26.661Z,19.25
2018-03-17T23:14:54.159Z,12.02
2018-03-17T23:17:21.649Z,10.23
2018-03-17T23:19:49.202Z,18.02
2018-03-17T23:22:17.464Z,18.12
2018-03-17T23:24:44.959Z,15.32
2018-03-17T23:27:12.460Z,14.52
2018-03-17T23:29:39.952Z,18.55
2018-03-17T23:32:07.445Z,15.02
2018-03-17T23:34:34.958Z,21.58
2018-03-17T23:37:03.240Z,22.15
2018-03-17T23:39:31.537Z,19.83
2018-03-17T23:41:59.041Z,20.50
2018-03-17T23:44:26.543Z,14.15
2018-03-17T23:46:54.028Z,12.95
2018-03-17T23:49:21.510Z,19.50
2018-03-17T23:51:49.020Z,13.73
2018-03-17T23:54:17.297Z,19.08
2018-03-17T23:56:44.826Z,16.98
2018-03-17T23:59:12.568Z,16.10
